Time;durP1;ratioP1;P1;durP2;ratioP2;P2;SDS_P1;SDS_P2;PMS_P1;PMS_P2;Temp;Humidity;BMP_temperature;BMP_pressure;BME280_temperature;BME280_humidity;BME280_pressure;Samples;Min_cycle;Max_cycle;Signal;HPM_P1;HPM_P2
2022/05/05 00:01:36;;;;;;;15.90;9.25;;;;;;;11.17;62.89;101778.34;4976345;28;20038;-95
2022/05/05 00:04:02;;;;;;;16.40;8.88;;;;;;;11.13;62.40;101778.53;4982743;28;20033;-94
2022/05/05 00:06:27;;;;;;;15.38;8.65;;;;;;;11.13;62.14;101787.38;4993194;28;20030;-94
2022/05/05 00:08:54;;;;;;;15.93;9.13;;;;;;;11.11;62.42;101781.22;4995141;28;20041;-93
2022/05/05 00:16:47;;;;;;;16.67;8.30;;;;;;;10.91;62.49;101779.34;4992247;28;20527;-95
2022/05/05 00:19:12;;;;;;;16.13;8.90;;;;;;;10.87;62.67;101769.72;4996599;28;20042;-94
2022/05/05 00:21:38;;;;;;;14.18;8.60;;;;;;;10.87;62.70;101775.03;4991022;28;20025;-94
2022/05/05 00:24:07;;;;;;;14.48;8.88;;;;;;;10.82;63.08;101777.00;4990971;28;20030;-94
2022/05/05 00:26:32;;;;;;;16.13;8.75;;;;;;;10.76;63.21;101784.34;4991178;28;20109;-93
2022/05/05 00:28:58;;;;;;;15.00;8.57;;;;;;;10.71;63.29;101774.75;4981003;28;20082;-92
2022/05/05 00:31:23;;;;;;;14.02;8.15;;;;;;;10.67;63.92;101782.91;4978329;28;20043;-92
2022/05/05 00:33:48;;;;;;;19.35;9.05;;;;;;;10.59;64.10;101776.97;4989076;28;20287;-92
2022/05/05 00:36:14;;;;;;;15.60;8.48;;;;;;;10.59;64.19;101784.97;4998356;28;20046;-93
2022/05/05 00:38:39;;;;;;;16.42;8.73;;;;;;;10.56;64.26;101782.41;4989735;28;20369;-93
2022/05/05 00:41:05;;;;;;;15.77;8.63;;;;;;;10.52;64.27;101783.44;4981271;28;20019;-93
2022/05/05 00:43:30;;;;;;;16.63;8.95;;;;;;;10.46;64.46;101784.53;4993537;28;20049;-92
2022/05/05 00:45:56;;;;;;;15.50;8.70;;;;;;;10.33;65.23;101776.13;4989693;28;20287;-93
2022/05/05 00:48:25;;;;;;;14.00;8.95;;;;;;;10.30;65.57;101781.53;4994243;28;20358;-94
2022/05/05 00:50:51;;;;;;;13.60;8.55;;;;;;;10.23;65.97;101772.84;4987277;28;20034;-93
2022/05/05 00:53:17;;;;;;;14.43;9.05;;;;;;;10.16;66.31;101773.13;4984810;28;20034;-94
2022/05/05 00:55:43;;;;;;;15.60;8.98;;;;;;;10.16;65.91;101771.34;4989782;28;20042;-93
2022/05/05 00:58:09;;;;;;;12.82;8.50;;;;;;;10.15;65.88;101768.72;4979899;28;20122;-93
2022/05/05 01:00:35;;;;;;;14.80;7.90;;;;;;;10.14;65.94;101778.50;4987167;28;20031;-93
2022/05/05 01:03:01;;;;;;;16.83;9.23;;;;;;;10.13;65.96;101774.09;4978503;28;20049;-94
2022/05/05 01:05:32;;;;;;;14.27;8.75;;;;;;;10.11;66.08;101775.06;4984330;28;20558;-93
2022/05/05 01:07:58;;;;;;;14.90;8.82;;;;;;;10.07;66.37;101774.28;4986015;28;20030;-94
2022/05/05 01:10:25;;;;;;;16.42;9.10;;;;;;;10.02;66.85;101772.72;4989794;28;20023;-93
2022/05/05 01:12:50;;;;;;;15.00;9.15;;;;;;;9.94;66.88;101776.50;4992719;28;20031;-92
2022/05/05 01:15:15;;;;;;;14.95;9.23;;;;;;;9.89;67.43;101767.81;5000072;28;20041;-93
2022/05/05 01:17:41;;;;;;;13.48;8.68;;;;;;;9.94;66.93;101770.31;5003279;28;20070;-93
2022/05/05 01:20:13;;;;;;;11.60;8.40;;;;;;;10.06;66.96;101764.59;5001248;28;20033;-94
2022/05/05 01:22:39;;;;;;;15.25;9.25;;;;;;;10.01;67.87;101763.88;4988535;28;20030;-94
2022/05/05 01:30:32;;;;;;;;;;;;;;;10.16;64.49;101774.00;4993652;28;20081;-95
2022/05/05 01:32:57;;;;;;;17.93;9.17;;;;;;;10.03;67.72;101772.66;5001968;28;19918;-96
2022/05/05 01:35:23;;;;;;;16.58;8.65;;;;;;;10.00;67.57;101775.44;4999886;28;20313;-95
2022/05/05 01:37:48;;;;;;;12.68;8.13;;;;;;;10.02;67.68;101772.72;5004685;28;20069;-95
2022/05/05 01:40:14;;;;;;;12.93;8.25;;;;;;;10.01;67.36;101771.84;4999055;28;20480;-94
2022/05/05 01:42:39;;;;;;;14.02;8.63;;;;;;;9.99;67.81;101763.06;5004160;28;20027;-94
2022/05/05 01:45:05;;;;;;;16.75;9.13;;;;;;;10.02;67.50;101776.25;4996226;28;20056;-93
2022/05/05 01:47:31;;;;;;;14.30;8.93;;;;;;;10.06;67.88;101777.00;4995484;28;20034;-93
2022/05/05 01:49:58;;;;;;;16.65;9.07;;;;;;;10.12;67.75;101780.34;5001863;28;20019;-94
2022/05/05 01:52:23;;;;;;;18.40;9.40;;;;;;;10.18;67.34;101777.47;4999289;28;20089;-94
2022/05/05 01:54:48;;;;;;;12.40;8.25;;;;;;;10.26;67.21;101779.03;5006251;28;20026;-93
2022/05/05 01:57:13;;;;;;;12.43;8.75;;;;;;;10.25;67.46;101778.16;5005700;28;20027;-93
2022/05/05 01:59:39;;;;;;;15.25;8.63;;;;;;;10.31;67.38;101779.72;5003658;28;20022;-94
2022/05/05 02:02:04;;;;;;;14.27;9.02;;;;;;;10.35;67.40;101774.25;4991358;28;20458;-94
2022/05/05 02:04:30;;;;;;;13.93;9.18;;;;;;;10.41;67.00;101773.19;5003155;28;20495;-93
2022/05/05 02:06:55;;;;;;;15.13;9.68;;;;;;;10.41;66.86;101766.06;4989938;28;20426;-93
2022/05/05 02:09:21;;;;;;;15.05;9.07;;;;;;;10.51;66.34;101768.41;4999205;28;20023;-94
2022/05/05 02:11:46;;;;;;;15.43;8.93;;;;;;;10.56;66.05;101777.06;4988897;28;20034;-93
2022/05/05 02:14:11;;;;;;;15.95;8.73;;;;;;;10.48;65.81;101769.38;4999333;28;20180;-93
2022/05/05 02:16:36;;;;;;;20.13;9.65;;;;;;;10.58;65.88;101775.25;4988782;28;20038;-94
2022/05/05 02:19:02;;;;;;;15.18;9.35;;;;;;;10.59;66.78;101772.53;4998830;28;20058;-94
2022/05/05 02:21:27;;;;;;;14.02;8.70;;;;;;;10.62;66.58;101776.88;4998126;28;20026;-95
2022/05/05 02:23:52;;;;;;;15.15;9.82;;;;;;;10.62;66.72;101788.38;4997993;28;20137;-94
2022/05/05 02:26:17;;;;;;;14.75;9.07;;;;;;;10.54;67.62;101776.28;4998718;28;20035;-94
2022/05/05 02:28:43;;;;;;;16.48;9.55;;;;;;;10.50;67.71;101779.97;5001761;28;20053;-94
2022/05/05 02:31:08;;;;;;;14.63;9.35;;;;;;;10.46;68.60;101782.72;4998302;28;20032;-95
2022/05/05 02:33:33;;;;;;;16.80;9.73;;;;;;;10.50;68.85;101787.97;4992590;28;20033;-94
2022/05/05 02:38:42;;;;;;;17.23;9.32;;;;;;;10.46;68.67;101788.06;4996462;28;20053;-95
2022/05/05 02:41:08;;;;;;;16.10;9.77;;;;;;;10.52;67.80;101781.63;5001727;28;20551;-95
2022/05/05 02:43:33;;;;;;;17.15;9.88;;;;;;;10.55;67.64;101778.88;4998019;28;20337;-94
2022/05/05 02:45:58;;;;;;;16.45;9.60;;;;;;;10.55;67.54;101778.88;4986423;28;20092;-93
2022/05/05 02:48:24;;;;;;;16.70;9.85;;;;;;;10.64;67.47;101793.66;4998559;28;20039;-94
2022/05/05 02:50:49;;;;;;;14.82;10.15;;;;;;;10.60;68.03;101774.25;4993484;28;20027;-94
2022/05/05 02:55:58;;;;;;;17.88;10.15;;;;;;;10.66;67.78;101779.38;4990108;28;20089;-94
2022/05/05 02:58:23;;;;;;;15.85;9.82;;;;;;;10.61;67.47;101778.63;4996699;28;20041;-94
2022/05/05 03:00:49;;;;;;;14.68;8.90;;;;;;;10.58;67.82;101775.25;4993277;28;20042;-94
2022/05/05 03:03:14;;;;;;;18.02;9.70;;;;;;;10.64;67.28;101772.34;5001042;28;20033;-94
2022/05/05 03:05:39;;;;;;;15.63;9.25;;;;;;;10.69;67.03;101779.22;5000477;28;20034;-94
2022/05/05 03:08:04;;;;;;;17.77;9.98;;;;;;;10.70;67.06;101778.34;4992649;28;20030;-94
2022/05/05 03:10:30;;;;;;;18.58;9.95;;;;;;;10.70;67.03;101775.66;4990399;28;20038;-94
2022/05/05 03:12:55;;;;;;;16.00;9.43;;;;;;;10.73;67.11;101780.00;4995907;28;20280;-94
2022/05/05 03:15:21;;;;;;;13.40;8.98;;;;;;;10.72;67.35;101780.94;4988736;28;20050;-94
2022/05/05 03:17:48;;;;;;;18.35;9.88;;;;;;;10.72;67.35;101775.59;4985570;28;20106;-94
2022/05/05 03:20:13;;;;;;;16.83;9.52;;;;;;;10.68;67.69;101779.31;4987710;28;20057;-95
2022/05/05 03:22:38;;;;;;;17.08;9.88;;;;;;;10.66;67.81;101775.84;4987961;28;21406;-95
2022/05/05 03:25:04;;;;;;;14.63;9.13;;;;;;;10.64;67.93;101780.34;4993696;28;20084;-94
2022/05/05 03:27:29;;;;;;;15.35;9.73;;;;;;;10.69;68.30;101789.00;4985146;28;20493;-94
2022/05/05 03:29:55;;;;;;;15.50;9.95;;;;;;;10.70;67.85;101781.00;4989998;28;20317;-95
2022/05/05 03:32:20;;;;;;;15.75;8.82;;;;;;;10.69;67.68;101781.91;4987648;28;20042;-94
2022/05/05 03:34:45;;;;;;;17.00;9.25;;;;;;;10.68;67.95;101781.97;4991154;28;20058;-93
2022/05/05 03:37:10;;;;;;;15.77;9.77;;;;;;;10.66;68.03;101775.84;4990782;28;20057;-94
2022/05/05 03:39:36;;;;;;;15.23;9.13;;;;;;;10.69;67.77;101783.69;4989393;28;20026;-94
2022/05/05 03:42:02;;;;;;;15.60;9.88;;;;;;;10.69;67.66;101781.03;4989666;28;20058;-94
2022/05/05 03:44:27;;;;;;;16.10;10.15;;;;;;;10.70;67.85;101782.75;4970518;28;20030;-95
2022/05/05 03:46:53;;;;;;;18.80;9.63;;;;;;;10.71;67.82;101789.84;4987839;28;20037;-94
2022/05/05 03:49:18;;;;;;;17.55;9.82;;;;;;;10.70;67.38;101790.75;4985457;28;20062;-93
2022/05/05 03:51:44;;;;;;;16.23;10.10;;;;;;;10.69;67.58;101794.34;4988272;28;20101;-93
2022/05/05 03:54:10;;;;;;;15.65;10.57;;;;;;;10.66;66.95;101789.16;4994025;28;20026;-94
2022/05/05 03:56:35;;;;;;;17.77;9.82;;;;;;;10.64;67.67;101791.84;4998737;28;20081;-94
2022/05/05 03:59:01;;;;;;;14.77;10.05;;;;;;;10.64;68.01;101804.28;4990350;28;20022;-93
2022/05/05 04:01:26;;;;;;;20.85;10.40;;;;;;;10.59;68.22;101806.25;4996165;28;20503;-93
2022/05/05 04:03:51;;;;;;;19.27;10.93;;;;;;;10.56;68.33;101801.91;4996350;28;20030;-94
2022/05/05 04:06:19;;;;;;;16.67;9.77;;;;;;;10.58;68.41;101804.53;4999339;28;20030;-94
2022/05/05 04:08:44;;;;;;;18.20;10.80;;;;;;;10.59;68.45;101814.25;4995542;28;20210;-94
2022/05/05 04:11:10;;;;;;;14.90;10.50;;;;;;;10.61;67.88;101810.59;4975685;28;20027;-94
2022/05/05 04:13:36;;;;;;;14.98;9.85;;;;;;;10.60;68.41;101814.19;5001035;28;20030;-95
2022/05/05 04:16:01;;;;;;;16.67;10.50;;;;;;;10.61;68.82;101815.91;4983592;28;20175;-94
2022/05/05 04:18:27;;;;;;;18.00;9.98;;;;;;;10.58;69.03;101812.50;4991628;28;20038;-95
2022/05/05 04:20:53;;;;;;;16.27;10.18;;;;;;;10.56;68.95;101809.88;4988727;28;20038;-94
2022/05/05 04:23:18;;;;;;;14.23;9.27;;;;;;;10.55;69.02;101813.47;4995495;28;20057;-94
2022/05/05 04:25:44;;;;;;;16.25;10.20;;;;;;;10.54;69.19;101822.41;4991805;28;20030;-95
2022/05/05 04:28:12;;;;;;;16.92;9.63;;;;;;;10.60;69.54;101830.16;5002982;28;20050;-94
2022/05/05 04:30:38;;;;;;;17.02;9.80;;;;;;;10.59;69.27;101830.22;4993998;28;20026;-95
2022/05/05 04:33:04;;;;;;;17.27;10.00;;;;;;;10.61;68.94;101828.34;4996924;28;20117;-95
2022/05/05 04:35:30;;;;;;;17.45;10.68;;;;;;;10.58;69.20;101823.16;4994382;28;20035;-95
2022/05/05 04:37:55;;;;;;;18.77;10.88;;;;;;;10.60;69.10;101826.63;4971418;28;20097;-94
2022/05/05 04:40:21;;;;;;;15.25;10.32;;;;;;;10.58;68.58;101818.72;4970612;28;20026;-95
2022/05/05 04:42:46;;;;;;;17.40;10.75;;;;;;;10.62;67.94;101828.31;4994585;28;20026;-94
2022/05/05 04:45:11;;;;;;;18.35;11.25;;;;;;;10.64;68.12;101833.59;4994579;28;20033;-93
2022/05/05 04:47:37;;;;;;;18.00;10.93;;;;;;;10.70;68.13;101836.91;4981931;28;20030;-95
2022/05/05 04:50:03;;;;;;;18.67;11.15;;;;;;;10.72;67.70;101837.72;4968315;28;20026;-95
2022/05/05 04:52:28;;;;;;;18.80;11.45;;;;;;;10.69;67.73;101827.16;4978187;28;20099;-94
2022/05/05 04:54:54;;;;;;;17.15;11.00;;;;;;;10.73;66.95;101835.91;4986413;28;20030;-94
2022/05/05 04:57:20;;;;;;;18.23;10.95;;;;;;;10.79;66.87;101843.69;4978854;28;20034;-95
2022/05/05 04:59:45;;;;;;;18.33;11.30;;;;;;;10.83;66.41;101842.66;4982316;28;20037;-95
2022/05/05 05:02:10;;;;;;;17.02;11.35;;;;;;;10.86;66.40;101842.53;4983616;28;20043;-95
2022/05/05 05:04:36;;;;;;;17.77;11.38;;;;;;;10.89;66.67;101850.41;4996485;28;20036;-95
2022/05/05 05:07:01;;;;;;;18.48;11.02;;;;;;;10.95;66.32;101846.66;4968120;28;20042;-94
2022/05/05 05:09:26;;;;;;;18.50;11.07;;;;;;;10.98;66.47;101843.88;4981761;28;20031;-94
2022/05/05 05:11:52;;;;;;;17.63;11.32;;;;;;;11.00;65.89;101838.53;4982314;28;20083;-94
2022/05/05 05:14:17;;;;;;;18.75;10.63;;;;;;;11.00;66.27;101858.03;4995554;28;20035;-94
2022/05/05 05:16:42;;;;;;;20.20;10.77;;;;;;;11.03;66.06;101857.91;4992103;28;20049;-95
2022/05/05 05:19:08;;;;;;;18.42;11.00;;;;;;;11.04;66.54;101858.78;4997125;28;20288;-94
2022/05/05 05:21:33;;;;;;;17.17;10.85;;;;;;;11.04;66.63;101858.78;4994426;28;20041;-95
2022/05/05 05:23:59;;;;;;;18.25;10.45;;;;;;;10.99;66.69;101853.59;4997841;28;20042;-94
2022/05/05 05:26:24;;;;;;;19.33;10.88;;;;;;;11.01;66.75;101862.44;4988540;28;20464;-95
2022/05/05 05:28:49;;;;;;;18.40;11.25;;;;;;;11.01;66.53;101862.44;4989094;28;20057;-95
2022/05/05 05:31:16;;;;;;;17.05;10.68;;;;;;;11.08;66.46;101865.75;4983544;28;20034;-94
2022/05/05 05:33:42;;;;;;;21.33;11.77;;;;;;;11.09;66.00;101859.50;4991678;28;20039;-95
2022/05/05 05:36:08;;;;;;;18.25;10.52;;;;;;;11.07;65.46;101854.19;4991658;28;20014;-96
2022/05/05 05:38:33;;;;;;;16.75;11.55;;;;;;;11.06;65.97;101862.25;4985145;28;20037;-96
2022/05/05 05:40:59;;;;;;;18.60;11.55;;;;;;;11.06;66.52;101863.13;4980839;28;20066;-96
2022/05/05 05:43:24;;;;;;;19.65;11.48;;;;;;;11.07;65.81;101859.53;4982308;28;20082;-96
2022/05/05 05:45:49;;;;;;;19.55;11.73;;;;;;;11.10;66.11;101864.75;4988988;28;20527;-95
2022/05/05 05:48:14;;;;;;;19.77;11.30;;;;;;;11.06;65.96;101859.59;4985179;28;20045;-95
2022/05/05 05:50:40;;;;;;;19.90;11.70;;;;;;;11.11;66.92;101871.81;4964743;28;20022;-96
2022/05/05 05:53:05;;;;;;;20.63;11.55;;;;;;;11.13;66.25;101872.63;4989109;28;20056;-94
2022/05/05 05:55:31;;;;;;;18.17;11.52;;;;;;;11.11;66.50;101887.78;4993275;28;20048;-94
2022/05/05 05:57:56;;;;;;;20.17;12.15;;;;;;;11.08;67.42;101879.06;4994246;28;20125;-96
2022/05/05 06:00:21;;;;;;;19.80;12.15;;;;;;;11.12;67.69;101878.91;4985984;28;20145;-96
2022/05/05 06:05:31;;;;;;;20.48;11.70;;;;;;;11.26;68.28;101880.19;4983640;28;20058;-96
2022/05/05 06:07:58;;;;;;;17.77;11.85;;;;;;;11.28;67.40;101887.19;4985377;28;20026;-96
2022/05/05 06:10:23;;;;;;;21.38;11.30;;;;;;;11.25;66.92;101884.66;4984001;28;20034;-96
2022/05/05 06:12:48;;;;;;;23.85;12.02;;;;;;;11.29;66.29;101901.41;4995632;28;20039;-96
2022/05/05 06:15:14;;;;;;;20.38;11.63;;;;;;;11.33;65.67;101895.91;4993098;28;20034;-96
2022/05/05 06:17:40;;;;;;;21.85;12.55;;;;;;;11.42;65.62;101892.88;4989226;28;20047;-96
2022/05/05 06:20:06;;;;;;;22.92;12.32;;;;;;;11.60;66.04;101895.78;4981892;28;20062;-96
2022/05/05 06:22:32;;;;;;;20.13;12.68;;;;;;;11.84;66.24;101900.19;4987856;28;20447;-96
2022/05/05 06:24:58;;;;;;;23.65;12.52;;;;;;;11.96;64.85;101899.72;4994721;28;20062;-94
2022/05/05 06:27:23;;;;;;;23.17;12.90;;;;;;;12.18;63.95;101899.69;4987259;28;20085;-95
2022/05/05 06:29:48;;;;;;;22.52;12.48;;;;;;;12.45;63.69;101902.16;4989239;28;20369;-95
2022/05/05 06:32:17;;;;;;;21.65;12.75;;;;;;;12.64;63.18;101899.59;5003179;28;20138;-96
2022/05/05 06:34:42;;;;;;;23.50;12.52;;;;;;;12.90;62.59;101902.00;4982999;28;20113;-96
2022/05/05 06:37:08;;;;;;;22.92;12.90;;;;;;;13.08;61.96;101905.66;4980356;28;20125;-96
2022/05/05 06:39:33;;;;;;;22.38;13.15;;;;;;;13.25;60.48;101898.72;4982871;28;20579;-95
2022/05/05 06:41:59;;;;;;;21.98;13.05;;;;;;;13.53;59.95;101903.69;4988701;28;20045;-96
2022/05/05 06:44:24;;;;;;;20.20;12.93;;;;;;;13.73;59.40;101905.44;4973568;28;20034;-96
2022/05/05 06:46:50;;;;;;;23.55;13.32;;;;;;;13.91;58.28;101907.22;4989904;28;20467;-96
2022/05/05 06:49:17;;;;;;;21.83;13.60;;;;;;;14.14;58.41;101900.78;4986457;28;20034;-96
2022/05/05 06:51:42;;;;;;;22.25;13.68;;;;;;;14.39;57.48;101893.25;4996493;28;20455;-95
2022/05/05 06:54:07;;;;;;;23.40;13.50;;;;;;;14.70;56.67;101902.44;4982008;28;20399;-95
2022/05/05 06:56:32;;;;;;;22.60;14.02;;;;;;;15.00;55.83;101909.84;4989750;28;20022;-96
2022/05/05 06:58:58;;;;;;;27.58;15.25;;;;;;;15.24;54.79;101911.22;4991363;28;20128;-96
2022/05/05 07:06:51;;;;;;;;;;;;;;;16.10;55.19;101926.19;4980776;28;20053;-96
2022/05/05 07:12:00;;;;;;;36.67;16.10;;;;;;;16.68;50.89;101925.50;4975000;28;20308;-94
2022/05/05 07:14:25;;;;;;;30.27;18.25;;;;;;;16.67;50.31;101928.25;4977513;28;20030;-94
2022/05/05 07:16:50;;;;;;;28.17;16.58;;;;;;;16.76;49.94;101926.88;4988726;28;20108;-94
2022/05/05 07:19:15;;;;;;;27.02;16.52;;;;;;;16.85;49.21;101935.25;4963321;28;20038;-95
2022/05/05 07:21:41;;;;;;;30.73;16.73;;;;;;;17.10;49.23;101923.88;4984693;28;20034;-94
2022/05/05 07:24:06;;;;;;;31.30;18.30;;;;;;;17.60;48.42;101937.84;5005157;28;20058;-96
2022/05/05 07:26:31;;;;;;;36.50;21.42;;;;;;;17.94;47.50;101936.59;4999015;28;20042;-96
2022/05/05 07:28:57;;;;;;;37.88;22.33;;;;;;;18.30;46.39;101941.41;4986622;28;20070;-95
2022/05/05 07:31:22;;;;;;;39.25;23.63;;;;;;;18.74;46.31;101937.59;4996989;28;20022;-96
2022/05/05 07:33:47;;;;;;;35.55;22.52;;;;;;;19.06;45.78;101940.81;4994017;28;20060;-96
2022/05/05 07:36:12;;;;;;;35.40;21.25;;;;;;;19.22;44.21;101939.72;4987690;28;20042;-94
2022/05/05 07:38:38;;;;;;;37.42;22.35;;;;;;;19.31;44.31;101933.66;4980075;28;20039;-95
2022/05/05 07:41:03;;;;;;;37.70;22.10;;;;;;;19.50;43.82;101939.50;4975910;28;20046;-95
2022/05/05 07:43:29;;;;;;;37.60;23.55;;;;;;;19.71;43.70;101937.13;4988015;28;20096;-95
2022/05/05 07:45:54;;;;;;;40.72;24.60;;;;;;;19.91;42.35;101927.59;5046202;23;20602;-96
2022/05/05 07:48:20;;;;;;;38.85;25.13;;;;;;;20.31;42.33;101947.09;5112052;23;20055;-96
2022/05/05 07:50:47;;;;;;;36.42;24.65;;;;;;;20.52;41.76;101933.00;5141279;23;20054;-96
2022/05/05 07:53:13;;;;;;;40.65;25.15;;;;;;;20.74;40.95;101940.34;5001692;28;20054;-96
2022/05/05 07:55:39;;;;;;;42.60;24.23;;;;;;;20.46;40.95;101906.41;5097250;23;20044;-93
2022/05/05 07:58:04;;;;;;;36.65;24.17;;;;;;;20.68;41.68;101911.06;4996101;28;20022;-96
2022/05/05 08:00:42;;;;;;;;;;;;;;;;;;;;;
2022/05/05 08:03:09;;;;;;;38.40;23.90;;;;;;;20.80;39.64;101918.22;5110661;23;20097;-96
2022/05/05 08:05:34;;;;;;;37.80;22.95;;;;;;;20.59;40.24;101912.63;4988279;28;20065;-94
2022/05/05 08:08:02;;;;;;;36.15;23.10;;;;;;;20.69;40.34;101946.09;4990885;28;20034;-96
2022/05/05 08:13:06;;;;;;;35.88;22.95;;;;;;;22.00;38.00;101923.16;5146355;23;20058;-96
2022/05/05 08:15:31;;;;;;;39.05;24.00;;;;;;;22.75;36.16;101931.31;4977221;28;20068;-92
2022/05/05 08:17:56;;;;;;;35.08;23.42;;;;;;;23.21;35.52;101948.25;4970796;28;20125;-95
2022/05/05 08:20:21;;;;;;;36.13;23.75;;;;;;;23.60;34.45;101960.19;4971341;28;20026;-95
2022/05/05 08:22:47;;;;;;;36.47;22.38;;;;;;;24.20;33.84;101963.84;4985128;28;20440;-91
2022/05/05 08:30:41;;;;;;;32.15;22.17;;;;;;;23.48;35.08;101972.13;5005465;28;20523;-95
2022/05/05 08:33:06;;;;;;;33.65;23.20;;;;;;;23.09;34.29;101939.31;5265944;23;20058;-96
2022/05/05 08:35:38;;;;;;;35.53;24.00;;;;;;;22.56;36.02;101982.69;5317950;23;20057;31
2022/05/05 08:38:09;;;;;;;35.53;23.73;;;;;;;21.55;37.44;101961.09;5066858;23;20051;-96
2022/05/05 08:43:12;;;;;;;40.08;26.70;;;;;;;21.77;37.79;101944.84;5810076;23;20501;-84
2022/05/05 08:45:38;;;;;;;39.80;26.95;;;;;;;23.14;35.73;101947.91;4990219;28;20134;-96
2022/05/05 08:48:11;;;;;;;39.47;25.58;;;;;;;24.48;33.69;101975.81;4972804;28;20385;-96
2022/05/05 08:50:38;;;;;;;41.28;25.65;;;;;;;25.48;31.10;101978.22;5000460;23;20065;-96
2022/05/05 08:55:38;;;;;;;38.45;26.42;;;;;;;25.58;30.91;101950.91;5542566;23;20033;-92
2022/05/05 08:58:04;;;;;;;38.63;26.40;;;;;;;24.80;32.42;101989.19;5674165;23;20042;-96
2022/05/05 09:11:17;;;;;;;37.13;25.73;;;;;;;26.78;29.78;101946.19;5748238;23;20177;-93
2022/05/05 09:13:43;;;;;;;41.20;26.63;;;;;;;27.70;27.34;101953.00;5347522;23;20077;-92
2022/05/05 09:16:10;;;;;;;39.85;25.95;;;;;;;27.63;27.61;101960.16;5003340;28;20025;-95
2022/05/05 09:18:36;;;;;;;41.05;29.38;;;;;;;26.65;29.57;101997.63;4996924;28;20479;-93
2022/05/05 09:21:06;;;;;;;41.13;28.27;;;;;;;25.73;30.74;101994.91;4990568;28;20036;-90
2022/05/05 09:24:34;;;;;;;40.13;28.90;;;;;;;24.61;32.32;102000.03;4994498;28;20030;-96
2022/05/05 09:26:25;;;;;;;40.00;27.77;;;;;;;23.66;33.51;101992.28;4990720;28;20308;-92
2022/05/05 09:28:51;;;;;;;66.90;30.80;;;;;;;22.72;35.00;101998.56;4997413;28;20124;-93
2022/05/05 09:31:16;;;;;;;52.90;29.55;;;;;;;22.08;35.99;101996.59;4999433;28;20129;-96
2022/05/05 09:33:43;;;;;;;39.75;28.52;;;;;;;21.65;37.30;102000.00;5000837;28;20040;-95
2022/05/05 09:36:14;;;;;;;43.63;27.63;;;;;;;21.17;38.72;102010.13;4996950;28;20109;-88
2022/05/05 09:38:53;;;;;;;43.33;29.40;;;;;;;20.68;39.22;102006.59;5000390;28;20073;-91
2022/05/05 09:41:25;;;;;;;41.58;28.23;;;;;;;20.38;39.74;102009.72;5016106;28;20045;-92
2022/05/05 09:43:53;;;;;;;42.28;28.27;;;;;;;19.96;40.40;102006.47;5007440;28;20099;-92
2022/05/05 09:46:21;;;;;;;44.17;28.75;;;;;;;19.54;41.19;102010.34;5015347;28;20034;-96
2022/05/05 09:49:12;;;;;;;39.42;27.65;;;;;;;19.35;40.93;101994.56;5100943;23;20144;-93
2022/05/05 09:57:46;;;;;;;40.95;27.73;;;;;;;19.05;42.13;102019.13;4987749;28;20107;-95
2022/05/05 10:05:45;;;;;;;37.95;23.85;;;;;;;19.40;42.53;102014.91;4976835;28;20041;-83
2022/05/05 10:08:15;;;;;;;35.38;24.85;;;;;;;19.54;42.73;102015.75;4982928;28;20022;-82
2022/05/05 10:10:42;;;;;;;38.53;25.52;;;;;;;19.42;43.12;102017.47;4983572;28;20037;-83
2022/05/05 10:13:08;;;;;;;36.72;25.70;;;;;;;19.49;43.27;102013.38;4979470;28;20034;-84
2022/05/05 10:15:34;;;;;;;37.28;25.98;;;;;;;19.86;42.32;102019.78;4983632;28;20038;-84
2022/05/05 10:18:03;;;;;;;36.58;25.70;;;;;;;20.20;41.84;102019.19;4974488;28;20034;-85
2022/05/05 10:20:30;;;;;;;38.10;26.05;;;;;;;20.57;40.47;102018.25;4987469;28;20833;-85
2022/05/05 10:23:05;;;;;;;38.13;25.98;;;;;;;20.85;39.73;102017.00;4985540;28;20491;-86
2022/05/05 10:25:33;;;;;;;39.90;26.88;;;;;;;21.32;38.64;102025.22;4977059;28;20492;-85
2022/05/05 10:27:59;;;;;;;34.47;25.92;;;;;;;22.18;37.10;102013.00;4985059;28;20026;-84
2022/05/05 10:30:34;;;;;;;37.63;25.75;;;;;;;22.99;35.82;102025.25;4982093;28;20026;-85
2022/05/05 10:33:00;;;;;;;39.58;26.50;;;;;;;23.28;34.79;102015.50;4986000;28;20045;-84
2022/05/05 10:35:26;;;;;;;34.85;24.67;;;;;;;24.54;32.88;102016.09;4985724;28;20096;-85
2022/05/05 10:37:51;;;;;;;34.03;26.13;;;;;;;24.79;32.11;102017.41;4982226;28;20027;-85
2022/05/05 10:40:17;;;;;;;31.33;23.83;;;;;;;25.24;31.16;102013.25;4981833;28;20030;-85
2022/05/05 10:42:45;;;;;;;32.58;24.58;;;;;;;24.63;32.14;102018.97;4986097;28;20056;-84
2022/05/05 10:45:18;;;;;;;36.00;24.00;;;;;;;23.82;33.11;102021.69;4981525;28;20030;-84
2022/05/05 10:47:57;;;;;;;34.38;25.30;;;;;;;23.28;34.72;102025.47;4983433;28;20054;-84
2022/05/05 10:50:30;;;;;;;34.60;25.85;;;;;;;22.65;35.77;102024.47;4985170;28;20068;-85
2022/05/05 10:52:57;;;;;;;38.05;28.05;;;;;;;22.20;36.61;102021.88;4983541;28;20840;-84
2022/05/05 10:55:26;;;;;;;39.38;28.80;;;;;;;21.88;36.92;102023.44;4982844;28;20026;-84
2022/05/05 10:57:52;;;;;;;36.03;26.42;;;;;;;22.08;37.89;102029.13;4979829;28;20093;-85
2022/05/05 11:00:22;;;;;;;35.60;27.15;;;;;;;22.50;36.26;102018.50;4973796;28;20099;-85
2022/05/05 11:03:00;;;;;;;37.83;26.48;;;;;;;25.23;33.63;102017.00;4975359;28;20057;-85
2022/05/05 11:05:31;;;;;;;35.90;25.67;;;;;;;27.79;28.27;102009.50;4984199;28;20125;-85
2022/05/05 11:08:17;;;;;;;39.83;26.77;;;;;;;29.13;27.53;102011.44;4978163;28;20184;-85
2022/05/05 11:11:40;;;;;;;35.28;27.20;;;;;;;28.90;26.71;102016.72;4985964;28;20066;-85
2022/05/05 11:13:38;;;;;;;35.67;26.17;;;;;;;30.37;24.17;102022.84;4974510;28;20042;-86
2022/05/05 11:22:11;;;;;;;34.55;26.98;;;;;;;29.55;25.84;102008.47;4983512;28;20037;-85
2022/05/05 11:24:45;;;;;;;34.22;27.48;;;;;;;30.50;24.07;102017.59;4984233;28;20034;-84
2022/05/05 11:27:12;;;;;;;33.70;26.90;;;;;;;31.67;23.04;102015.47;4983717;28;20515;-85
2022/05/05 11:29:38;;;;;;;31.95;26.48;;;;;;;32.75;22.58;102010.31;4981913;28;20117;-84
2022/05/05 11:32:06;;;;;;;31.45;26.85;;;;;;;33.24;20.96;102015.06;4987360;28;20121;-84
2022/05/05 11:34:36;;;;;;;31.63;25.25;;;;;;;33.51;20.35;102013.38;4982368;28;20293;-84
2022/05/05 11:37:03;;;;;;;33.80;26.23;;;;;;;33.54;20.45;102019.34;4972346;28;20042;-84
2022/05/05 11:39:30;;;;;;;28.52;25.38;;;;;;;33.30;20.74;102015.09;4981012;28;20031;-84
2022/05/05 11:42:09;;;;;;;31.73;25.52;;;;;;;32.68;21.15;102016.59;4979408;28;20476;-84
2022/05/05 11:44:41;;;;;;;30.70;25.70;;;;;;;32.27;21.10;102021.81;4979135;28;20034;-84
2022/05/05 11:47:16;;;;;;;32.10;25.73;;;;;;;32.40;21.26;102021.19;4977185;28;20038;-84
2022/05/05 11:49:46;;;;;;;30.40;26.38;;;;;;;32.45;21.08;102014.03;4977377;28;20070;-84
2022/05/05 11:52:19;;;;;;;25.35;22.60;;;;;;;31.98;21.59;102000.72;4984807;28;20029;-84
2022/05/05 11:54:51;;;;;;;;;;;;;;;32.97;21.22;102012.03;4979652;28;20042;-84
2022/05/05 11:57:38;;;;;;;20.80;18.63;;;;;;;32.43;20.71;102009.75;4980760;28;19983;-84
2022/05/05 12:02:50;;;;;;;25.23;19.70;;;;;;;31.58;20.94;102010.25;4982865;28;20452;-84
2022/05/05 12:05:16;;;;;;;20.10;17.98;;;;;;;32.22;20.30;101994.84;4979275;28;20038;-84
2022/05/05 12:07:44;;;;;;;22.35;18.65;;;;;;;33.49;19.46;101997.03;4982579;28;20396;-84
2022/05/05 12:10:10;;;;;;;24.42;19.65;;;;;;;34.16;19.08;101996.34;4977749;28;20113;-84
2022/05/05 12:12:37;;;;;;;22.67;18.83;;;;;;;33.87;19.53;101993.84;4981580;28;20381;-84
2022/05/05 12:15:07;;;;;;;29.08;24.73;;;;;;;33.89;19.78;102000.84;4979326;28;20037;-85
2022/05/05 12:17:34;;;;;;;29.17;24.52;;;;;;;34.18;19.05;101993.38;4978719;28;20046;-84
2022/05/05 12:20:03;;;;;;;28.23;25.15;;;;;;;32.65;19.91;101994.97;4983500;28;20049;-84
2022/05/05 12:22:30;;;;;;;27.08;23.50;;;;;;;30.23;22.50;102004.38;4984739;28;20029;-84
2022/05/05 12:25:07;;;;;;;26.88;23.48;;;;;;;28.41;24.47;101998.31;4982360;28;20516;-84